sensor_id;sensor_type;location;lat;lon;timestamp;temperature;humidity
27647;DHT22;42229;51.230;6.240;2023-03-14T00:01:43;13.80;99.90
27647;DHT22;42229;51.230;6.240;2023-03-14T00:04:10;13.70;99.90
27647;DHT22;42229;51.230;6.240;2023-03-14T00:06:36;13.70;99.90
27647;DHT22;42229;51.230;6.240;2023-03-14T00:09:02;13.60;99.90
27647;DHT22;42229;51.230;6.240;2023-03-14T00:11:28;13.50;99.90
27647;DHT22;42229;51.230;6.240;2023-03-14T00:13:55;13.30;99.90
27647;DHT22;42229;51.230;6.240;2023-03-14T00:16:21;13.20;99.90
27647;DHT22;42229;51.230;6.240;2023-03-14T00:18:48;13.00;99.90
27647;DHT22;42229;51.230;6.240;2023-03-14T00:21:14;12.90;99.90
27647;DHT22;42229;51.230;6.240;2023-03-14T00:23:41;12.80;99.90
27647;DHT22;42229;51.230;6.240;2023-03-14T00:26:12;12.70;99.90
27647;DHT22;42229;51.230;6.240;2023-03-14T00:28:43;12.60;99.90
27647;DHT22;42229;51.230;6.240;2023-03-14T00:31:10;12.50;99.90
27647;DHT22;42229;51.230;6.240;2023-03-14T00:33:39;12.40;99.90
27647;DHT22;42229;51.230;6.240;2023-03-14T00:36:06;12.30;99.90
27647;DHT22;42229;51.230;6.240;2023-03-14T00:38:37;12.30;99.90
27647;DHT22;42229;51.230;6.240;2023-03-14T00:41:09;12.30;99.90
27647;DHT22;42229;51.230;6.240;2023-03-14T00:43:37;12.20;99.90
27647;DHT22;42229;51.230;6.240;2023-03-14T00:46:03;12.10;99.90
27647;DHT22;42229;51.230;6.240;2023-03-14T00:48:30;12.10;99.90
27647;DHT22;42229;51.230;6.240;2023-03-14T00:50:57;12.10;99.90
27647;DHT22;42229;51.230;6.240;2023-03-14T00:53:23;12.00;99.90
27647;DHT22;42229;51.230;6.240;2023-03-14T00:55:49;12.00;99.90
27647;DHT22;42229;51.230;6.240;2023-03-14T00:58:17;12.00;99.90
27647;DHT22;42229;51.230;6.240;2023-03-14T01:00:44;11.90;99.90
27647;DHT22;42229;51.230;6.240;2023-03-14T01:03:11;11.90;99.90
27647;DHT22;42229;51.230;6.240;2023-03-14T01:05:38;11.90;99.90
27647;DHT22;42229;51.230;6.240;2023-03-14T01:08:04;11.80;99.90
27647;DHT22;42229;51.230;6.240;2023-03-14T01:10:34;11.80;99.90
27647;DHT22;42229;51.230;6.240;2023-03-14T01:13:00;11.80;99.90
27647;DHT22;42229;51.230;6.240;2023-03-14T01:15:28;11.70;99.90
27647;DHT22;42229;51.230;6.240;2023-03-14T01:17:54;11.70;99.90
27647;DHT22;42229;51.230;6.240;2023-03-14T01:20:22;11.70;99.90
27647;DHT22;42229;51.230;6.240;2023-03-14T01:22:49;11.70;99.90
27647;DHT22;42229;51.230;6.240;2023-03-14T01:25:17;11.60;99.90
27647;DHT22;42229;51.230;6.240;2023-03-14T01:27:44;11.60;99.90
27647;DHT22;42229;51.230;6.240;2023-03-14T01:30:11;11.60;99.90
27647;DHT22;42229;51.230;6.240;2023-03-14T01:32:38;11.60;99.90
27647;DHT22;42229;51.230;6.240;2023-03-14T01:35:05;11.60;99.90
27647;DHT22;42229;51.230;6.240;2023-03-14T01:37:32;11.60;99.90
27647;DHT22;42229;51.230;6.240;2023-03-14T01:39:59;11.60;99.90
27647;DHT22;42229;51.230;6.240;2023-03-14T01:42:25;11.60;99.90
27647;DHT22;42229;51.230;6.240;2023-03-14T01:44:52;11.70;99.90
27647;DHT22;42229;51.230;6.240;2023-03-14T01:47:20;11.70;99.90
27647;DHT22;42229;51.230;6.240;2023-03-14T01:49:48;11.70;99.90
27647;DHT22;42229;51.230;6.240;2023-03-14T01:52:25;11.80;99.90
27647;DHT22;42229;51.230;6.240;2023-03-14T01:55:00;11.80;99.90
27647;DHT22;42229;51.230;6.240;2023-03-14T01:57:32;11.80;99.90
27647;DHT22;42229;51.230;6.240;2023-03-14T02:00:00;11.80;99.90
27647;DHT22;42229;51.230;6.240;2023-03-14T02:02:44;11.90;99.90
27647;DHT22;42229;51.230;6.240;2023-03-14T02:05:14;11.90;99.90
27647;DHT22;42229;51.230;6.240;2023-03-14T02:07:52;11.90;99.90
27647;DHT22;42229;51.230;6.240;2023-03-14T02:10:27;11.90;99.90
27647;DHT22;42229;51.230;6.240;2023-03-14T02:12:56;12.00;99.90
27647;DHT22;42229;51.230;6.240;2023-03-14T02:15:33;11.90;99.90
27647;DHT22;42229;51.230;6.240;2023-03-14T02:18:09;11.90;99.90
27647;DHT22;42229;51.230;6.240;2023-03-14T02:21:06;11.90;99.90
27647;DHT22;42229;51.230;6.240;2023-03-14T02:26:40;11.90;99.90
27647;DHT22;42229;51.230;6.240;2023-03-14T02:29:09;11.80;99.90
27647;DHT22;42229;51.230;6.240;2023-03-14T02:31:36;11.90;99.90
27647;DHT22;42229;51.230;6.240;2023-03-14T02:34:02;11.90;99.90
27647;DHT22;42229;51.230;6.240;2023-03-14T02:36:28;11.90;99.90
27647;DHT22;42229;51.230;6.240;2023-03-14T02:39:02;11.90;99.90
27647;DHT22;42229;51.230;6.240;2023-03-14T02:41:32;11.90;99.90
27647;DHT22;42229;51.230;6.240;2023-03-14T02:44:03;11.90;99.90
27647;DHT22;42229;51.230;6.240;2023-03-14T02:46:29;11.90;99.90
27647;DHT22;42229;51.230;6.240;2023-03-14T02:51:24;12.00;99.90
27647;DHT22;42229;51.230;6.240;2023-03-14T02:53:51;11.90;99.90
27647;DHT22;42229;51.230;6.240;2023-03-14T02:56:19;12.00;99.90
27647;DHT22;42229;51.230;6.240;2023-03-14T02:58:46;12.00;99.90
27647;DHT22;42229;51.230;6.240;2023-03-14T03:01:26;12.00;99.90
27647;DHT22;42229;51.230;6.240;2023-03-14T03:03:53;12.00;99.90
27647;DHT22;42229;51.230;6.240;2023-03-14T03:06:19;12.00;99.90
27647;DHT22;42229;51.230;6.240;2023-03-14T03:08:45;12.00;99.90
27647;DHT22;42229;51.230;6.240;2023-03-14T03:11:11;12.10;99.90
27647;DHT22;42229;51.230;6.240;2023-03-14T03:13:38;12.00;99.90
27647;DHT22;42229;51.230;6.240;2023-03-14T03:16:05;12.10;99.90
27647;DHT22;42229;51.230;6.240;2023-03-14T03:18:34;12.10;99.90
27647;DHT22;42229;51.230;6.240;2023-03-14T03:21:03;12.10;99.90
27647;DHT22;42229;51.230;6.240;2023-03-14T03:23:30;12.10;99.90
27647;DHT22;42229;51.230;6.240;2023-03-14T03:25:57;12.10;99.90
27647;DHT22;42229;51.230;6.240;2023-03-14T03:28:23;12.10;99.90
27647;DHT22;42229;51.230;6.240;2023-03-14T03:30:51;12.10;99.90
27647;DHT22;42229;51.230;6.240;2023-03-14T03:33:17;12.10;99.90
27647;DHT22;42229;51.230;6.240;2023-03-14T03:35:45;12.10;99.90
27647;DHT22;42229;51.230;6.240;2023-03-14T03:38:12;12.10;99.90
27647;DHT22;42229;51.230;6.240;2023-03-14T03:40:39;12.00;99.90
27647;DHT22;42229;51.230;6.240;2023-03-14T03:43:07;12.00;99.90
27647;DHT22;42229;51.230;6.240;2023-03-14T03:45:36;12.00;99.90
27647;DHT22;42229;51.230;6.240;2023-03-14T03:48:03;11.90;99.90
27647;DHT22;42229;51.230;6.240;2023-03-14T03:50:29;11.80;99.90
27647;DHT22;42229;51.230;6.240;2023-03-14T03:52:56;11.70;99.90
27647;DHT22;42229;51.230;6.240;2023-03-14T03:55:22;11.70;99.90
27647;DHT22;42229;51.230;6.240;2023-03-14T03:57:48;11.60;99.90
27647;DHT22;42229;51.230;6.240;2023-03-14T04:00:14;11.50;99.90
27647;DHT22;42229;51.230;6.240;2023-03-14T04:02:41;11.40;99.90
27647;DHT22;42229;51.230;6.240;2023-03-14T04:05:09;11.30;99.90
27647;DHT22;42229;51.230;6.240;2023-03-14T04:07:38;11.30;99.90
27647;DHT22;42229;51.230;6.240;2023-03-14T04:10:06;11.20;99.90
27647;DHT22;42229;51.230;6.240;2023-03-14T04:12:36;11.10;99.90
27647;DHT22;42229;51.230;6.240;2023-03-14T04:15:07;11.10;99.90
27647;DHT22;42229;51.230;6.240;2023-03-14T04:17:35;11.10;99.90
27647;DHT22;42229;51.230;6.240;2023-03-14T04:20:01;11.00;99.90
27647;DHT22;42229;51.230;6.240;2023-03-14T04:22:36;11.00;99.90
27647;DHT22;42229;51.230;6.240;2023-03-14T04:25:03;10.90;99.90
27647;DHT22;42229;51.230;6.240;2023-03-14T04:27:33;10.90;99.90
27647;DHT22;42229;51.230;6.240;2023-03-14T04:30:01;10.80;99.90
27647;DHT22;42229;51.230;6.240;2023-03-14T04:32:46;10.80;99.90
27647;DHT22;42229;51.230;6.240;2023-03-14T04:35:13;10.80;99.90
27647;DHT22;42229;51.230;6.240;2023-03-14T04:37:39;10.80;99.90
27647;DHT22;42229;51.230;6.240;2023-03-14T04:40:09;10.70;99.90
27647;DHT22;42229;51.230;6.240;2023-03-14T04:42:37;10.70;99.90
27647;DHT22;42229;51.230;6.240;2023-03-14T04:45:04;10.70;99.90
27647;DHT22;42229;51.230;6.240;2023-03-14T04:47:32;10.80;99.90
27647;DHT22;42229;51.230;6.240;2023-03-14T04:49:59;10.70;99.90
27647;DHT22;42229;51.230;6.240;2023-03-14T04:52:26;10.70;99.90
27647;DHT22;42229;51.230;6.240;2023-03-14T04:54:52;10.80;99.90
27647;DHT22;42229;51.230;6.240;2023-03-14T04:57:21;10.70;99.90
27647;DHT22;42229;51.230;6.240;2023-03-14T04:59:48;10.70;99.90
27647;DHT22;42229;51.230;6.240;2023-03-14T05:02:29;10.80;99.90
27647;DHT22;42229;51.230;6.240;2023-03-14T05:05:11;10.80;99.90
27647;DHT22;42229;51.230;6.240;2023-03-14T05:07:45;10.80;99.90
27647;DHT22;42229;51.230;6.240;2023-03-14T05:10:37;10.80;99.90
27647;DHT22;42229;51.230;6.240;2023-03-14T05:13:15;10.80;99.90
27647;DHT22;42229;51.230;6.240;2023-03-14T05:16:03;10.90;99.90
27647;DHT22;42229;51.230;6.240;2023-03-14T05:18:49;10.90;99.90
27647;DHT22;42229;51.230;6.240;2023-03-14T05:21:42;10.90;99.90
27647;DHT22;42229;51.230;6.240;2023-03-14T05:24:27;11.00;99.90
27647;DHT22;42229;51.230;6.240;2023-03-14T05:27:02;11.00;99.90
27647;DHT22;42229;51.230;6.240;2023-03-14T05:29:40;11.00;99.90
27647;DHT22;42229;51.230;6.240;2023-03-14T05:32:25;11.10;99.90
27647;DHT22;42229;51.230;6.240;2023-03-14T05:34:57;11.10;99.90
27647;DHT22;42229;51.230;6.240;2023-03-14T05:37:48;11.10;99.90
27647;DHT22;42229;51.230;6.240;2023-03-14T05:40:29;11.10;99.90
27647;DHT22;42229;51.230;6.240;2023-03-14T05:43:05;11.20;99.90
27647;DHT22;42229;51.230;6.240;2023-03-14T05:45:48;11.20;99.90
27647;DHT22;42229;51.230;6.240;2023-03-14T05:48:47;11.20;99.90
27647;DHT22;42229;51.230;6.240;2023-03-14T05:51:27;11.20;99.90
27647;DHT22;42229;51.230;6.240;2023-03-14T05:53:53;11.20;99.90
27647;DHT22;42229;51.230;6.240;2023-03-14T05:56:33;11.30;99.90
27647;DHT22;42229;51.230;6.240;2023-03-14T05:59:16;11.20;99.90
27647;DHT22;42229;51.230;6.240;2023-03-14T06:02:15;11.20;99.90
27647;DHT22;42229;51.230;6.240;2023-03-14T06:04:52;11.20;99.90
27647;DHT22;42229;51.230;6.240;2023-03-14T06:07:18;11.30;99.90
27647;DHT22;42229;51.230;6.240;2023-03-14T06:09:45;11.20;99.90
27647;DHT22;42229;51.230;6.240;2023-03-14T06:12:12;11.30;99.90
27647;DHT22;42229;51.230;6.240;2023-03-14T06:14:42;11.30;99.90
27647;DHT22;42229;51.230;6.240;2023-03-14T06:17:10;11.30;99.90
27647;DHT22;42229;51.230;6.240;2023-03-14T06:19:51;11.30;99.90
27647;DHT22;42229;51.230;6.240;2023-03-14T06:22:17;11.20;99.90
27647;DHT22;42229;51.230;6.240;2023-03-14T06:24:47;11.30;99.90
27647;DHT22;42229;51.230;6.240;2023-03-14T06:27:15;11.30;99.90
27647;DHT22;42229;51.230;6.240;2023-03-14T06:29:41;11.30;99.90
27647;DHT22;42229;51.230;6.240;2023-03-14T06:32:07;11.30;99.90
27647;DHT22;42229;51.230;6.240;2023-03-14T06:34:36;11.30;99.90
27647;DHT22;42229;51.230;6.240;2023-03-14T06:37:02;11.30;99.90
27647;DHT22;42229;51.230;6.240;2023-03-14T06:39:29;11.30;99.90
27647;DHT22;42229;51.230;6.240;2023-03-14T06:42:04;11.40;99.90
27647;DHT22;42229;51.230;6.240;2023-03-14T06:44:31;11.40;99.90
27647;DHT22;42229;51.230;6.240;2023-03-14T06:46:57;11.40;99.90
27647;DHT22;42229;51.230;6.240;2023-03-14T06:49:23;11.40;99.90
27647;DHT22;42229;51.230;6.240;2023-03-14T06:51:53;11.40;99.90
27647;DHT22;42229;51.230;6.240;2023-03-14T06:54:19;11.40;99.90
27647;DHT22;42229;51.230;6.240;2023-03-14T06:56:47;11.40;99.90
27647;DHT22;42229;51.230;6.240;2023-03-14T06:59:13;11.50;99.90
27647;DHT22;42229;51.230;6.240;2023-03-14T07:01:41;11.50;99.90
27647;DHT22;42229;51.230;6.240;2023-03-14T07:04:10;11.50;99.90
27647;DHT22;42229;51.230;6.240;2023-03-14T07:06:39;11.50;99.90
27647;DHT22;42229;51.230;6.240;2023-03-14T07:09:10;11.60;99.90
27647;DHT22;42229;51.230;6.240;2023-03-14T07:11:40;11.60;99.90
27647;DHT22;42229;51.230;6.240;2023-03-14T07:14:07;11.60;99.90
27647;DHT22;42229;51.230;6.240;2023-03-14T07:16:33;11.60;99.90
27647;DHT22;42229;51.230;6.240;2023-03-14T07:19:00;11.60;99.90
27647;DHT22;42229;51.230;6.240;2023-03-14T07:21:26;11.60;99.90
27647;DHT22;42229;51.230;6.240;2023-03-14T07:23:53;11.70;99.90
27647;DHT22;42229;51.230;6.240;2023-03-14T07:26:19;11.70;99.90
27647;DHT22;42229;51.230;6.240;2023-03-14T07:28:49;11.70;99.90
27647;DHT22;42229;51.230;6.240;2023-03-14T07:31:18;11.70;99.90
27647;DHT22;42229;51.230;6.240;2023-03-14T07:33:46;11.70;99.90
27647;DHT22;42229;51.230;6.240;2023-03-14T07:36:12;11.70;99.90
27647;DHT22;42229;51.230;6.240;2023-03-14T07:38:42;11.70;99.90
27647;DHT22;42229;51.230;6.240;2023-03-14T07:41:17;11.70;99.90
27647;DHT22;42229;51.230;6.240;2023-03-14T07:44:01;11.70;99.90
27647;DHT22;42229;51.230;6.240;2023-03-14T07:46:27;11.80;99.90
27647;DHT22;42229;51.230;6.240;2023-03-14T07:48:53;11.80;99.90
27647;DHT22;42229;51.230;6.240;2023-03-14T07:51:20;11.80;99.90
27647;DHT22;42229;51.230;6.240;2023-03-14T07:53:46;11.80;99.90
27647;DHT22;42229;51.230;6.240;2023-03-14T07:56:12;11.90;99.90
27647;DHT22;42229;51.230;6.240;2023-03-14T07:58:38;11.90;99.90
27647;DHT22;42229;51.230;6.240;2023-03-14T08:01:05;11.90;99.90
27647;DHT22;42229;51.230;6.240;2023-03-14T08:03:31;12.00;99.90
27647;DHT22;42229;51.230;6.240;2023-03-14T08:05:57;12.10;99.90
27647;DHT22;42229;51.230;6.240;2023-03-14T08:08:26;12.10;99.90
27647;DHT22;42229;51.230;6.240;2023-03-14T08:10:52;12.10;99.90
27647;DHT22;42229;51.230;6.240;2023-03-14T08:13:18;12.20;99.90
27647;DHT22;42229;51.230;6.240;2023-03-14T08:15:47;12.20;99.90
27647;DHT22;42229;51.230;6.240;2023-03-14T08:18:14;12.20;99.90
27647;DHT22;42229;51.230;6.240;2023-03-14T08:20:40;12.20;99.90
27647;DHT22;42229;51.230;6.240;2023-03-14T08:23:07;12.20;99.90
27647;DHT22;42229;51.230;6.240;2023-03-14T08:25:33;12.10;99.90
27647;DHT22;42229;51.230;6.240;2023-03-14T08:27:59;12.10;99.90
27647;DHT22;42229;51.230;6.240;2023-03-14T08:30:26;12.10;99.90
27647;DHT22;42229;51.230;6.240;2023-03-14T08:32:52;12.10;99.90
27647;DHT22;42229;51.230;6.240;2023-03-14T08:35:18;12.10;99.90
27647;DHT22;42229;51.230;6.240;2023-03-14T08:37:45;12.00;99.90
27647;DHT22;42229;51.230;6.240;2023-03-14T08:40:11;12.00;99.90
27647;DHT22;42229;51.230;6.240;2023-03-14T08:42:38;12.00;99.90
27647;DHT22;42229;51.230;6.240;2023-03-14T08:45:05;11.90;99.90
27647;DHT22;42229;51.230;6.240;2023-03-14T08:47:33;11.60;99.90
27647;DHT22;42229;51.230;6.240;2023-03-14T08:49:59;11.40;99.90
27647;DHT22;42229;51.230;6.240;2023-03-14T08:52:25;11.20;99.90
27647;DHT22;42229;51.230;6.240;2023-03-14T08:54:51;11.10;99.90
27647;DHT22;42229;51.230;6.240;2023-03-14T08:57:18;11.00;99.90
27647;DHT22;42229;51.230;6.240;2023-03-14T08:59:44;10.80;99.90
27647;DHT22;42229;51.230;6.240;2023-03-14T09:02:10;10.60;99.90
27647;DHT22;42229;51.230;6.240;2023-03-14T09:04:37;10.40;99.90
27647;DHT22;42229;51.230;6.240;2023-03-14T09:07:03;10.30;99.90
27647;DHT22;42229;51.230;6.240;2023-03-14T09:09:30;10.30;99.90
27647;DHT22;42229;51.230;6.240;2023-03-14T09:11:56;10.10;99.90
27647;DHT22;42229;51.230;6.240;2023-03-14T09:14:23;10.00;99.90
27647;DHT22;42229;51.230;6.240;2023-03-14T09:16:49;9.90;99.90
27647;DHT22;42229;51.230;6.240;2023-03-14T09:19:16;9.80;99.90
27647;DHT22;42229;51.230;6.240;2023-03-14T09:21:42;9.80;99.90
27647;DHT22;42229;51.230;6.240;2023-03-14T09:24:09;9.70;99.90
27647;DHT22;42229;51.230;6.240;2023-03-14T09:26:35;9.70;99.90
27647;DHT22;42229;51.230;6.240;2023-03-14T09:29:01;9.60;99.90
27647;DHT22;42229;51.230;6.240;2023-03-14T09:31:27;9.60;99.90
27647;DHT22;42229;51.230;6.240;2023-03-14T09:33:55;9.60;99.90
27647;DHT22;42229;51.230;6.240;2023-03-14T09:36:21;9.50;99.90
27647;DHT22;42229;51.230;6.240;2023-03-14T09:38:48;9.50;99.90
27647;DHT22;42229;51.230;6.240;2023-03-14T09:41:16;9.50;99.90
27647;DHT22;42229;51.230;6.240;2023-03-14T09:43:44;9.50;99.90
27647;DHT22;42229;51.230;6.240;2023-03-14T09:46:12;9.50;99.90
27647;DHT22;42229;51.230;6.240;2023-03-14T09:48:39;9.40;99.90
27647;DHT22;42229;51.230;6.240;2023-03-14T09:51:11;9.40;99.90
27647;DHT22;42229;51.230;6.240;2023-03-14T09:53:40;9.50;99.90
27647;DHT22;42229;51.230;6.240;2023-03-14T09:56:23;9.60;99.90
27647;DHT22;42229;51.230;6.240;2023-03-14T09:58:56;9.60;99.90
27647;DHT22;42229;51.230;6.240;2023-03-14T10:01:25;9.60;99.90
27647;DHT22;42229;51.230;6.240;2023-03-14T10:03:54;9.60;99.90
27647;DHT22;42229;51.230;6.240;2023-03-14T10:06:22;9.50;99.90
27647;DHT22;42229;51.230;6.240;2023-03-14T10:08:50;9.50;99.90
27647;DHT22;42229;51.230;6.240;2023-03-14T10:11:18;9.40;99.90
27647;DHT22;42229;51.230;6.240;2023-03-14T10:16:33;9.40;99.90
27647;DHT22;42229;51.230;6.240;2023-03-14T10:19:02;9.50;99.90
27647;DHT22;42229;51.230;6.240;2023-03-14T10:21:52;9.40;99.90
27647;DHT22;42229;51.230;6.240;2023-03-14T10:24:26;9.50;99.90
27647;DHT22;42229;51.230;6.240;2023-03-14T10:26:54;9.50;99.90
27647;DHT22;42229;51.230;6.240;2023-03-14T10:29:24;9.70;99.90
27647;DHT22;42229;51.230;6.240;2023-03-14T10:32:03;9.70;99.90
27647;DHT22;42229;51.230;6.240;2023-03-14T10:34:32;9.80;99.90
27647;DHT22;42229;51.230;6.240;2023-03-14T10:39:55;9.90;99.90
27647;DHT22;42229;51.230;6.240;2023-03-14T10:42:26;9.90;99.90
27647;DHT22;42229;51.230;6.240;2023-03-14T10:44:56;9.70;99.90
27647;DHT22;42229;51.230;6.240;2023-03-14T10:47:24;9.40;99.90
27647;DHT22;42229;51.230;6.240;2023-03-14T10:49:52;9.20;99.90
27647;DHT22;42229;51.230;6.240;2023-03-14T10:54:58;8.90;99.90
27647;DHT22;42229;51.230;6.240;2023-03-14T10:57:26;8.70;99.90
27647;DHT22;42229;51.230;6.240;2023-03-14T10:59:53;8.60;99.90
27647;DHT22;42229;51.230;6.240;2023-03-14T11:05:13;8.30;99.90
27647;DHT22;42229;51.230;6.240;2023-03-14T11:07:44;8.30;99.90
27647;DHT22;42229;51.230;6.240;2023-03-14T11:15:41;8.50;99.90
27647;DHT22;42229;51.230;6.240;2023-03-14T11:21:27;8.60;99.90
27647;DHT22;42229;51.230;6.240;2023-03-14T11:24:15;8.50;99.90
27647;DHT22;42229;51.230;6.240;2023-03-14T11:32:17;8.60;99.90
27647;DHT22;42229;51.230;6.240;2023-03-14T11:37:16;8.60;99.90
27647;DHT22;42229;51.230;6.240;2023-03-14T11:45:37;8.70;99.90
27647;DHT22;42229;51.230;6.240;2023-03-14T11:51:12;8.60;99.90
27647;DHT22;42229;51.230;6.240;2023-03-14T11:54:01;8.70;99.90
27647;DHT22;42229;51.230;6.240;2023-03-14T11:56:37;8.80;99.90
27647;DHT22;42229;51.230;6.240;2023-03-14T11:59:11;9.00;99.90
27647;DHT22;42229;51.230;6.240;2023-03-14T12:02:04;9.20;99.90
27647;DHT22;42229;51.230;6.240;2023-03-14T12:04:45;9.50;99.90
27647;DHT22;42229;51.230;6.240;2023-03-14T12:07:20;9.80;99.90
27647;DHT22;42229;51.230;6.240;2023-03-14T12:10:01;10.00;99.90
27647;DHT22;42229;51.230;6.240;2023-03-14T12:12:28;10.20;99.90
27647;DHT22;42229;51.230;6.240;2023-03-14T12:14:59;10.20;99.90
27647;DHT22;42229;51.230;6.240;2023-03-14T12:20:22;10.20;99.90
27647;DHT22;42229;51.230;6.240;2023-03-14T12:22:51;10.10;99.90
27647;DHT22;42229;51.230;6.240;2023-03-14T12:27:47;10.30;99.90
27647;DHT22;42229;51.230;6.240;2023-03-14T12:35:42;10.90;99.90
27647;DHT22;42229;51.230;6.240;2023-03-14T12:38:21;10.90;99.90
27647;DHT22;42229;51.230;6.240;2023-03-14T12:40:59;11.00;99.90
27647;DHT22;42229;51.230;6.240;2023-03-14T12:43:30;10.90;99.90
27647;DHT22;42229;51.230;6.240;2023-03-14T12:46:09;10.60;99.90
27647;DHT22;42229;51.230;6.240;2023-03-14T12:51:29;10.00;99.90
27647;DHT22;42229;51.230;6.240;2023-03-14T12:59:28;9.40;99.90
27647;DHT22;42229;51.230;6.240;2023-03-14T13:01:56;9.20;99.90
27647;DHT22;42229;51.230;6.240;2023-03-14T13:04:26;9.10;99.90
27647;DHT22;42229;51.230;6.240;2023-03-14T13:06:55;9.00;99.90
27647;DHT22;42229;51.230;6.240;2023-03-14T13:11:55;8.90;99.90
27647;DHT22;42229;51.230;6.240;2023-03-14T13:14:22;8.90;99.90
27647;DHT22;42229;51.230;6.240;2023-03-14T13:16:49;8.90;99.90
27647;DHT22;42229;51.230;6.240;2023-03-14T13:19:17;8.80;99.90
27647;DHT22;42229;51.230;6.240;2023-03-14T13:21:45;8.80;99.90
27647;DHT22;42229;51.230;6.240;2023-03-14T13:24:22;8.80;99.90
27647;DHT22;42229;51.230;6.240;2023-03-14T13:26:49;8.80;99.90
27647;DHT22;42229;51.230;6.240;2023-03-14T13:29:22;8.70;99.90
27647;DHT22;42229;51.230;6.240;2023-03-14T13:31:50;8.80;99.90
27647;DHT22;42229;51.230;6.240;2023-03-14T13:34:33;8.90;99.90
27647;DHT22;42229;51.230;6.240;2023-03-14T13:37:00;9.00;99.90
27647;DHT22;42229;51.230;6.240;2023-03-14T13:39:27;9.30;99.90
27647;DHT22;42229;51.230;6.240;2023-03-14T13:41:57;9.50;99.90
27647;DHT22;42229;51.230;6.240;2023-03-14T13:44:32;9.80;99.90
27647;DHT22;42229;51.230;6.240;2023-03-14T13:47:05;9.90;99.90
27647;DHT22;42229;51.230;6.240;2023-03-14T13:49:35;10.00;99.90
27647;DHT22;42229;51.230;6.240;2023-03-14T13:52:03;10.20;99.90
27647;DHT22;42229;51.230;6.240;2023-03-14T13:54:30;10.60;99.90
27647;DHT22;42229;51.230;6.240;2023-03-14T13:57:00;10.90;99.90
27647;DHT22;42229;51.230;6.240;2023-03-14T13:59:28;11.10;99.90
27647;DHT22;42229;51.230;6.240;2023-03-14T14:01:56;11.30;99.90
27647;DHT22;42229;51.230;6.240;2023-03-14T14:04:24;11.40;99.90
27647;DHT22;42229;51.230;6.240;2023-03-14T14:06:57;11.60;99.90
27647;DHT22;42229;51.230;6.240;2023-03-14T14:09:29;11.30;97.50
27647;DHT22;42229;51.230;6.240;2023-03-14T14:12:00;11.30;99.00
27647;DHT22;42229;51.230;6.240;2023-03-14T14:16:54;11.30;98.10
27647;DHT22;42229;51.230;6.240;2023-03-14T14:19:21;11.30;96.30
27647;DHT22;42229;51.230;6.240;2023-03-14T14:21:48;11.10;93.40
27647;DHT22;42229;51.230;6.240;2023-03-14T14:24:15;11.00;93.10
27647;DHT22;42229;51.230;6.240;2023-03-14T14:26:50;10.70;88.20
27647;DHT22;42229;51.230;6.240;2023-03-14T14:29:28;10.60;90.20
27647;DHT22;42229;51.230;6.240;2023-03-14T14:32:14;10.50;89.20
27647;DHT22;42229;51.230;6.240;2023-03-14T14:34:42;10.60;86.20
27647;DHT22;42229;51.230;6.240;2023-03-14T14:37:28;10.60;88.70
27647;DHT22;42229;51.230;6.240;2023-03-14T14:39:58;10.60;89.10
27647;DHT22;42229;51.230;6.240;2023-03-14T14:42:27;10.70;87.80
27647;DHT22;42229;51.230;6.240;2023-03-14T14:44:56;10.60;85.80
27647;DHT22;42229;51.230;6.240;2023-03-14T14:47:24;10.60;88.40
27647;DHT22;42229;51.230;6.240;2023-03-14T14:49:52;10.70;91.00
27647;DHT22;42229;51.230;6.240;2023-03-14T14:52:20;10.90;91.60
27647;DHT22;42229;51.230;6.240;2023-03-14T14:54:59;11.10;91.50
27647;DHT22;42229;51.230;6.240;2023-03-14T14:57:33;11.30;91.60
27647;DHT22;42229;51.230;6.240;2023-03-14T15:00:07;11.40;85.70
27647;DHT22;42229;51.230;6.240;2023-03-14T15:05:13;11.60;86.80
27647;DHT22;42229;51.230;6.240;2023-03-14T15:07:40;11.60;87.20
27647;DHT22;42229;51.230;6.240;2023-03-14T15:10:10;11.60;84.20
27647;DHT22;42229;51.230;6.240;2023-03-14T15:12:38;11.50;82.90
27647;DHT22;42229;51.230;6.240;2023-03-14T15:15:04;11.60;86.10
27647;DHT22;42229;51.230;6.240;2023-03-14T15:17:31;11.70;83.60
27647;DHT22;42229;51.230;6.240;2023-03-14T15:19:57;11.50;77.10
27647;DHT22;42229;51.230;6.240;2023-03-14T15:22:24;11.40;79.00
27647;DHT22;42229;51.230;6.240;2023-03-14T15:24:50;11.30;75.50
27647;DHT22;42229;51.230;6.240;2023-03-14T15:27:17;11.20;77.00
27647;DHT22;42229;51.230;6.240;2023-03-14T15:29:44;11.20;78.20
27647;DHT22;42229;51.230;6.240;2023-03-14T15:32:14;11.00;79.00
27647;DHT22;42229;51.230;6.240;2023-03-14T15:34:42;11.00;82.80
27647;DHT22;42229;51.230;6.240;2023-03-14T15:37:10;10.90;80.60
27647;DHT22;42229;51.230;6.240;2023-03-14T15:39:38;10.60;76.20
27647;DHT22;42229;51.230;6.240;2023-03-14T15:42:05;10.50;79.90
27647;DHT22;42229;51.230;6.240;2023-03-14T15:44:31;10.60;84.80
27647;DHT22;42229;51.230;6.240;2023-03-14T15:46:57;10.60;83.00
27647;DHT22;42229;51.230;6.240;2023-03-14T15:49:23;10.50;78.80
27647;DHT22;42229;51.230;6.240;2023-03-14T15:51:50;10.40;80.40
27647;DHT22;42229;51.230;6.240;2023-03-14T15:54:16;10.40;80.60
27647;DHT22;42229;51.230;6.240;2023-03-14T15:56:42;10.20;77.70
27647;DHT22;42229;51.230;6.240;2023-03-14T15:59:08;10.10;82.80
27647;DHT22;42229;51.230;6.240;2023-03-14T16:01:37;10.10;80.90
27647;DHT22;42229;51.230;6.240;2023-03-14T16:04:04;10.10;78.20
27647;DHT22;42229;51.230;6.240;2023-03-14T16:06:30;9.90;77.60
27647;DHT22;42229;51.230;6.240;2023-03-14T16:08:56;9.90;80.30
27647;DHT22;42229;51.230;6.240;2023-03-14T16:11:22;9.80;78.80
27647;DHT22;42229;51.230;6.240;2023-03-14T16:13:49;9.70;79.60
27647;DHT22;42229;51.230;6.240;2023-03-14T16:16:17;9.70;79.40
27647;DHT22;42229;51.230;6.240;2023-03-14T16:18:49;9.60;82.10
27647;DHT22;42229;51.230;6.240;2023-03-14T16:21:16;9.50;79.20
27647;DHT22;42229;51.230;6.240;2023-03-14T16:23:43;9.50;82.50
27647;DHT22;42229;51.230;6.240;2023-03-14T16:26:10;9.50;82.90
27647;DHT22;42229;51.230;6.240;2023-03-14T16:28:38;9.50;83.80
27647;DHT22;42229;51.230;6.240;2023-03-14T16:31:05;9.50;85.30
27647;DHT22;42229;51.230;6.240;2023-03-14T16:33:33;9.40;84.10
27647;DHT22;42229;51.230;6.240;2023-03-14T16:36:01;9.30;83.50
27647;DHT22;42229;51.230;6.240;2023-03-14T16:38:33;9.20;83.70
27647;DHT22;42229;51.230;6.240;2023-03-14T16:41:05;9.10;84.70
27647;DHT22;42229;51.230;6.240;2023-03-14T16:43:32;9.10;85.90
27647;DHT22;42229;51.230;6.240;2023-03-14T16:46:02;9.00;85.40
27647;DHT22;42229;51.230;6.240;2023-03-14T16:48:28;8.90;87.10
27647;DHT22;42229;51.230;6.240;2023-03-14T16:50:55;9.00;88.50
27647;DHT22;42229;51.230;6.240;2023-03-14T16:53:21;8.90;86.20
27647;DHT22;42229;51.230;6.240;2023-03-14T16:55:48;8.90;87.60
27647;DHT22;42229;51.230;6.240;2023-03-14T16:58:15;8.70;87.70
27647;DHT22;42229;51.230;6.240;2023-03-14T17:00:43;8.60;88.10